WMKK/KUL METAR and TAF weather

Enter ICAO airport designator
Station Type Date Time Source
WMKK METAR 2019/10/19 06:30 UTC NOAA

WMKK 190630Z VRB05KT 9999 FEW017TCU SCT018 32/26 Q1007 NOSIG


Station Type Date Time Source
WMKK Decoded METAR 2019/10/19 06:30 UTC NOAA

Sepang/KL International Airport, Malaysia (WMKK) 02-44N 101-42E 22M
Oct 19, 2019 - 02:30 AM EDT / 2019.10.19 0630 UTC
Wind: Variable at 6 MPH (5 KT):0
Visibility: greater than 7 mile(s):0
Sky conditions: partly cloudy
Weather: Towering cumulus clouds observed
Temperature: 89 F (32 C)
Heat index: 102.9 F (39.4 C):1
Dew Point: 78 F (26 C)
Relative Humidity: 70%
Pressure (altimeter): 29.74 in. Hg (1007 hPa)
ob: WMKK 190630Z VRB05KT 9999 FEW017TCU SCT018 32/26 Q1007 NOSIG
cycle: 6

Station Type Date Time Source
WMKK TAF 2019/10/19 06:09 UTC NOAA

TAF WMKK 190500Z 1906/2012 VRB02KT 9999 FEW017CB
TEMPO 1907/1911 28008G18KT 3000 TSRA FEW008 FEW016CB SCT018
BECMG 1922/2000 4000 BR FEW005

Example: see airport list